createdAt,value
2019-05-18T00:00:39.150Z,63.93
2019-05-18T00:01:45.094Z,63.18
2019-05-18T00:02:49.639Z,62.96
2019-05-18T00:03:55.354Z,63.40
2019-05-18T00:05:00.356Z,63.21
2019-05-18T00:06:05.455Z,63.56
2019-05-18T00:07:10.244Z,63.78
2019-05-18T00:08:17.786Z,63.64
2019-05-18T00:09:23.086Z,63.51
2019-05-18T00:10:28.380Z,63.60
2019-05-18T00:11:33.796Z,63.42
2019-05-18T00:12:39.147Z,63.05
2019-05-18T00:13:44.238Z,63.25
2019-05-18T00:14:49.829Z,63.13
2019-05-18T00:15:55.120Z,62.94
2019-05-18T00:17:00.659Z,62.82
2019-05-18T00:18:05.655Z,63.21
2019-05-18T00:19:11.225Z,63.37
2019-05-18T00:20:15.965Z,63.20
2019-05-18T00:21:21.029Z,63.88
2019-05-18T00:22:25.834Z,63.79
2019-05-18T00:23:30.947Z,62.81
2019-05-18T00:24:35.456Z,63.30
2019-05-18T00:25:41.041Z,63.29
2019-05-18T00:26:47.154Z,63.20
2019-05-18T00:27:52.727Z,63.25
2019-05-18T00:28:57.758Z,62.94
2019-05-18T00:30:03.324Z,62.89
2019-05-18T00:31:08.014Z,62.91
2019-05-18T00:32:13.261Z,62.52
2019-05-18T00:33:20.772Z,62.21
2019-05-18T00:34:26.646Z,62.12
2019-05-18T00:35:31.429Z,62.22
2019-05-18T00:36:36.959Z,61.97
2019-05-18T00:37:42.322Z,61.55
2019-05-18T00:38:48.246Z,61.62
2019-05-18T00:39:53.563Z,61.45
2019-05-18T00:40:58.864Z,61.91
2019-05-18T00:42:03.739Z,62.36
2019-05-18T00:43:09.035Z,61.68
2019-05-18T00:44:14.371Z,61.50
2019-05-18T00:45:19.401Z,61.27
2019-05-18T00:46:24.484Z,61.43
2019-05-18T00:47:40.779Z,61.22
2019-05-18T00:48:36.316Z,61.92
2019-05-18T00:49:42.334Z,61.56
2019-05-18T00:50:46.863Z,61.21
2019-05-18T00:51:52.231Z,61.60
2019-05-18T00:52:57.894Z,61.99
2019-05-18T00:54:03.316Z,61.57
2019-05-18T00:55:08.767Z,61.92
2019-05-18T00:56:14.648Z,62.11
2019-05-18T00:57:20.029Z,62.17
2019-05-18T00:58:25.596Z,61.78
2019-05-18T00:59:31.034Z,61.72
2019-05-18T01:00:36.293Z,61.74
2019-05-18T01:01:41.374Z,61.50
2019-05-18T01:02:47.393Z,61.18
2019-05-18T01:03:52.434Z,61.52
2019-05-18T01:04:57.957Z,61.15
2019-05-18T01:06:03.146Z,60.46
2019-05-18T01:07:08.687Z,60.47
2019-05-18T01:08:13.810Z,60.15
2019-05-18T01:09:19.750Z,59.99
2019-05-18T01:10:25.052Z,60.11
2019-05-18T01:11:30.629Z,60.35
2019-05-18T01:12:35.586Z,60.83
2019-05-18T01:13:41.422Z,61.14
2019-05-18T01:14:46.747Z,60.67
2019-05-18T01:15:52.326Z,61.01
2019-05-18T01:16:57.651Z,60.15
2019-05-18T01:18:03.511Z,60.36
2019-05-18T01:19:08.539Z,59.81
2019-05-18T01:20:14.670Z,60.71
2019-05-18T01:21:19.736Z,60.71
2019-05-18T01:22:25.612Z,61.11
2019-05-18T01:23:31.031Z,61.17
2019-05-18T01:24:36.927Z,61.04
2019-05-18T01:25:41.946Z,61.25
2019-05-18T01:26:47.535Z,61.65
2019-05-18T01:27:52.297Z,61.45
2019-05-18T01:29:01.796Z,60.90
2019-05-18T01:30:07.494Z,61.28
2019-05-18T01:31:13.302Z,61.36
2019-05-18T01:32:18.091Z,61.23
2019-05-18T01:33:23.890Z,61.40
2019-05-18T01:34:28.965Z,61.78
2019-05-18T01:35:34.255Z,61.60
2019-05-18T01:36:39.442Z,61.47
2019-05-18T01:37:45.322Z,61.31
2019-05-18T01:38:49.790Z,61.44
2019-05-18T01:39:55.332Z,62.01
2019-05-18T01:41:00.698Z,62.05
2019-05-18T01:42:06.263Z,61.38
2019-05-18T01:43:11.009Z,61.94
2019-05-18T01:44:16.821Z,61.53
2019-05-18T01:45:21.837Z,61.62
2019-05-18T01:46:27.433Z,61.38
2019-05-18T01:47:32.819Z,61.64
2019-05-18T01:48:38.370Z,61.38
2019-05-18T01:49:43.470Z,61.00
2019-05-18T01:50:49.306Z,61.06
2019-05-18T01:51:54.642Z,61.11
2019-05-18T01:52:59.952Z,60.94
2019-05-18T01:54:04.987Z,60.88
2019-05-18T01:55:10.247Z,60.68
2019-05-18T01:56:15.318Z,61.04
2019-05-18T01:57:21.547Z,60.37
2019-05-18T01:58:26.016Z,60.40
2019-05-18T01:59:32.401Z,60.46
2019-05-18T02:00:37.379Z,60.51
2019-05-18T02:01:42.986Z,60.27
2019-05-18T02:02:47.969Z,60.65
2019-05-18T02:03:52.973Z,60.53
2019-05-18T02:04:57.941Z,60.11
2019-05-18T02:06:04.023Z,59.91
2019-05-18T02:07:08.812Z,59.91
2019-05-18T02:08:14.134Z,60.04
2019-05-18T02:09:19.125Z,59.87
2019-05-18T02:10:24.421Z,60.05
2019-05-18T02:11:29.410Z,59.57
2019-05-18T02:12:35.005Z,59.55
2019-05-18T02:13:40.490Z,59.82
2019-05-18T02:14:46.036Z,60.06
2019-05-18T02:15:51.059Z,60.47
2019-05-18T02:16:56.752Z,60.11
2019-05-18T02:18:01.758Z,60.80
2019-05-18T02:19:07.111Z,60.47
2019-05-18T02:20:12.833Z,60.18
2019-05-18T02:21:18.673Z,59.98
2019-05-18T02:22:24.219Z,60.34
2019-05-18T02:23:29.753Z,60.17
2019-05-18T02:24:34.451Z,60.55
2019-05-18T02:25:40.024Z,60.63
2019-05-18T02:26:44.752Z,60.79
2019-05-18T02:27:50.294Z,60.62
2019-05-18T02:28:55.298Z,61.15
2019-05-18T02:30:01.941Z,61.72
2019-05-18T02:31:07.039Z,61.96
2019-05-18T02:32:12.623Z,62.28
2019-05-18T02:33:17.080Z,61.78
2019-05-18T02:34:23.047Z,61.94
2019-05-18T02:35:28.428Z,62.02
2019-05-18T02:36:34.494Z,61.92
2019-05-18T02:37:39.513Z,62.04
2019-05-18T02:38:44.842Z,61.64
2019-05-18T02:39:52.406Z,61.71
2019-05-18T02:40:57.658Z,62.11
2019-05-18T02:42:02.417Z,62.46
2019-05-18T02:43:07.910Z,62.05
2019-05-18T02:44:13.183Z,62.15
2019-05-18T02:45:18.521Z,62.48
2019-05-18T02:46:23.894Z,62.69
2019-05-18T02:47:29.836Z,62.85
2019-05-18T02:48:48.513Z,63.04
2019-05-18T02:49:42.120Z,63.51
2019-05-18T02:50:46.857Z,63.91
2019-05-18T02:51:52.452Z,63.97
2019-05-18T02:52:57.376Z,63.82
2019-05-18T02:54:03.538Z,64.19
2019-05-18T02:55:08.487Z,64.22
2019-05-18T02:56:13.998Z,63.74
2019-05-18T02:57:18.761Z,63.67
2019-05-18T02:58:24.386Z,63.72
2019-05-18T02:59:29.758Z,63.89
2019-05-18T03:00:35.083Z,63.95
2019-05-18T03:01:40.120Z,64.57
2019-05-18T03:02:46.015Z,64.76
2019-05-18T03:03:51.317Z,64.55
2019-05-18T03:04:57.808Z,65.19
2019-05-18T03:06:03.426Z,65.48
2019-05-18T03:07:08.957Z,64.69
2019-05-18T03:08:14.298Z,64.78
2019-05-18T03:09:19.956Z,64.69
2019-05-18T03:10:24.950Z,65.05
2019-05-18T03:11:30.617Z,65.43
2019-05-18T03:12:35.939Z,65.38
2019-05-18T03:13:41.130Z,64.93
2019-05-18T03:14:46.517Z,64.93
2019-05-18T03:15:51.840Z,64.67
2019-05-18T03:16:57.575Z,64.74
2019-05-18T03:18:03.213Z,64.88
2019-05-18T03:19:09.245Z,64.75
2019-05-18T03:20:15.157Z,64.10
2019-05-18T03:21:20.889Z,63.93
2019-05-18T03:22:26.694Z,64.04
2019-05-18T03:23:31.718Z,63.85
2019-05-18T03:24:37.607Z,63.91
2019-05-18T03:25:42.774Z,64.76
2019-05-18T03:26:48.101Z,64.59
2019-05-18T03:27:53.783Z,64.27
2019-05-18T03:28:58.757Z,64.41
2019-05-18T03:30:03.925Z,63.56
2019-05-18T03:31:09.020Z,63.67
2019-05-18T03:32:14.229Z,64.67
2019-05-18T03:33:20.092Z,64.66
2019-05-18T03:34:24.908Z,64.00
2019-05-18T03:35:30.898Z,64.62
2019-05-18T03:36:36.243Z,64.57
2019-05-18T03:37:41.890Z,63.95
2019-05-18T03:38:47.184Z,63.84
2019-05-18T03:39:52.639Z,64.04
2019-05-18T03:40:57.927Z,63.68
2019-05-18T03:42:03.620Z,63.74
2019-05-18T03:43:08.390Z,63.83
2019-05-18T03:44:14.133Z,64.03
2019-05-18T03:45:19.140Z,63.49
2019-05-18T03:46:24.730Z,63.57
2019-05-18T03:47:30.072Z,63.49
2019-05-18T03:48:35.965Z,64.24
2019-05-18T03:49:41.009Z,63.97
2019-05-18T03:50:46.263Z,63.95
2019-05-18T03:51:51.051Z,63.14
2019-05-18T03:52:56.654Z,62.95
2019-05-18T03:54:01.974Z,62.90
2019-05-18T03:55:07.605Z,62.62
2019-05-18T03:56:12.646Z,63.32
2019-05-18T03:57:17.899Z,63.29
2019-05-18T03:58:23.023Z,63.03
2019-05-18T03:59:28.874Z,63.09
2019-05-18T04:00:33.608Z,63.74
2019-05-18T04:01:39.478Z,63.93
2019-05-18T04:02:44.782Z,63.20
2019-05-18T04:03:50.665Z,63.48
2019-05-18T04:04:55.364Z,63.47
2019-05-18T04:06:00.649Z,62.59
2019-05-18T04:07:05.904Z,62.13
2019-05-18T04:08:11.841Z,61.92
2019-05-18T04:09:17.180Z,62.43
2019-05-18T04:10:31.798Z,62.88
2019-05-18T04:11:36.838Z,62.02
2019-05-18T04:12:42.371Z,62.05
2019-05-18T04:13:47.500Z,61.83
2019-05-18T04:14:53.255Z,62.01
2019-05-18T04:15:58.199Z,61.66
2019-05-18T04:17:04.073Z,61.29
2019-05-18T04:18:09.068Z,61.67
2019-05-18T04:19:14.934Z,61.21
2019-05-18T04:20:19.676Z,61.04
2019-05-18T04:21:24.926Z,61.04
2019-05-18T04:22:29.694Z,60.96
2019-05-18T04:23:35.621Z,61.99
2019-05-18T04:24:40.568Z,61.91
2019-05-18T04:25:46.266Z,60.90
2019-05-18T04:26:50.924Z,60.94
2019-05-18T04:27:56.520Z,61.48
2019-05-18T04:29:01.314Z,61.67
2019-05-18T04:30:06.783Z,61.90
2019-05-18T04:31:11.789Z,61.34
2019-05-18T04:32:17.882Z,61.04
2019-05-18T04:33:22.981Z,61.23
2019-05-18T04:34:28.811Z,61.29
2019-05-18T04:35:33.819Z,61.15
2019-05-18T04:36:39.416Z,61.17
2019-05-18T04:37:44.487Z,61.27
2019-05-18T04:38:50.632Z,61.34
2019-05-18T04:39:55.898Z,61.46
2019-05-18T04:41:00.957Z,61.89
2019-05-18T04:42:05.980Z,61.78
2019-05-18T04:43:11.552Z,61.79
2019-05-18T04:44:16.793Z,61.52
2019-05-18T04:45:22.072Z,61.62
2019-05-18T04:46:27.280Z,61.98
2019-05-18T04:47:33.106Z,61.83
2019-05-18T04:48:38.428Z,62.03
2019-05-18T04:49:43.798Z,62.27
2019-05-18T04:50:48.903Z,62.10
2019-05-18T04:51:54.758Z,61.76
2019-05-18T04:52:59.800Z,61.77
2019-05-18T04:54:05.095Z,61.13
2019-05-18T04:55:09.947Z,60.86
2019-05-18T04:56:15.654Z,61.05
2019-05-18T04:57:21.250Z,61.34
2019-05-18T04:58:26.904Z,61.35
2019-05-18T04:59:31.752Z,61.20
2019-05-18T05:00:37.412Z,61.00
2019-05-18T05:01:42.207Z,60.76
2019-05-18T05:02:48.415Z,61.08
2019-05-18T05:03:53.487Z,61.80
2019-05-18T05:04:59.376Z,61.85
2019-05-18T05:06:04.087Z,61.41
2019-05-18T05:07:09.684Z,61.69
2019-05-18T05:08:14.486Z,62.13
2019-05-18T05:09:20.487Z,61.70
2019-05-18T05:10:25.780Z,62.05
2019-05-18T05:11:31.900Z,62.52
2019-05-18T05:12:37.237Z,62.81
2019-05-18T05:13:43.323Z,63.13
2019-05-18T05:14:48.938Z,62.78
2019-05-18T05:15:54.597Z,62.43
2019-05-18T05:16:59.863Z,61.85
2019-05-18T05:18:05.424Z,62.76
2019-05-18T05:19:09.900Z,62.69
2019-05-18T05:20:19.837Z,62.74
2019-05-18T05:21:22.493Z,62.48
2019-05-18T05:22:28.387Z,62.56
2019-05-18T05:23:33.241Z,62.60
2019-05-18T05:24:39.097Z,62.21
2019-05-18T05:25:44.656Z,62.33
2019-05-18T05:26:50.206Z,62.28
2019-05-18T05:27:55.596Z,62.72
2019-05-18T05:29:01.858Z,63.05
2019-05-18T05:30:06.629Z,62.62
2019-05-18T05:31:12.791Z,62.41
2019-05-18T05:32:18.233Z,62.42
2019-05-18T05:33:26.719Z,62.29
2019-05-18T05:34:31.724Z,62.00
2019-05-18T05:35:37.966Z,62.14
2019-05-18T05:36:43.305Z,61.83
2019-05-18T05:37:49.255Z,61.84
2019-05-18T05:38:53.907Z,61.69
2019-05-18T05:39:59.827Z,61.38
2019-05-18T05:41:04.660Z,61.00
2019-05-18T05:42:10.182Z,60.43
2019-05-18T05:43:15.554Z,60.66
2019-05-18T05:44:20.861Z,60.88
2019-05-18T05:45:25.475Z,60.92
2019-05-18T05:46:31.462Z,60.50
2019-05-18T05:47:36.479Z,60.46
2019-05-18T05:48:42.173Z,60.06
2019-05-18T05:49:47.474Z,59.38
2019-05-18T05:50:53.019Z,60.01
2019-05-18T05:51:58.037Z,59.53
2019-05-18T05:53:03.667Z,59.27
2019-05-18T05:54:09.021Z,59.11
2019-05-18T05:55:14.980Z,58.44
2019-05-18T05:56:20.504Z,58.60
2019-05-18T05:57:26.162Z,58.89
2019-05-18T05:58:31.310Z,58.59
2019-05-18T05:59:39.757Z,58.23
2019-05-18T06:00:55.979Z,58.63
2019-05-18T06:02:11.974Z,57.93
2019-05-18T06:03:58.258Z,57.61
2019-05-18T06:08:08.810Z,57.25
2019-05-18T06:10:43.390Z,57.59
2019-05-18T06:12:41.025Z,57.49
2019-05-18T06:17:22.341Z,57.23
2019-05-18T06:21:18.748Z,56.04
2019-05-18T06:22:19.453Z,56.13
2019-05-18T06:23:40.208Z,56.03
2019-05-18T06:24:51.215Z,56.42
2019-05-18T06:26:00.178Z,56.03
2019-05-18T06:27:08.073Z,55.81
2019-05-18T06:28:24.293Z,55.71
2019-05-18T06:29:36.856Z,55.68
2019-05-18T06:31:04.380Z,55.93
2019-05-18T06:32:25.798Z,55.66
2019-05-18T06:33:39.724Z,55.95
2019-05-18T06:35:01.626Z,55.64
2019-05-18T06:36:13.527Z,55.46
2019-05-18T06:37:30.298Z,56.22
2019-05-18T06:38:38.983Z,55.97
2019-05-18T06:39:46.594Z,55.69
2019-05-18T06:40:54.225Z,55.16
2019-05-18T06:42:03.273Z,55.20
2019-05-18T06:43:22.917Z,55.47
2019-05-18T06:44:41.440Z,55.11
2019-05-18T06:45:52.810Z,54.73
2019-05-18T06:47:36.320Z,54.81
2019-05-18T06:48:41.230Z,54.61
2019-05-18T06:49:47.136Z,54.31
2019-05-18T06:51:06.325Z,53.71
2019-05-18T06:52:00.418Z,53.73
2019-05-18T06:53:05.539Z,52.65
2019-05-18T06:54:10.873Z,52.91
2019-05-18T06:55:15.628Z,52.53
2019-05-18T06:56:24.453Z,52.13
2019-05-18T06:57:30.215Z,51.44
2019-05-18T06:58:36.679Z,51.65
2019-05-18T06:59:42.395Z,51.08
2019-05-18T07:00:49.832Z,50.70
2019-05-18T07:01:55.117Z,50.30
2019-05-18T07:03:01.022Z,50.38
2019-05-18T07:04:06.166Z,49.99
2019-05-18T07:05:12.369Z,49.70
2019-05-18T07:06:17.146Z,48.44
2019-05-18T07:07:22.442Z,47.69
2019-05-18T07:08:27.596Z,47.05
2019-05-18T07:09:33.884Z,48.53
2019-05-18T07:10:38.880Z,48.40
2019-05-18T07:11:44.451Z,46.69
2019-05-18T07:12:49.430Z,44.82
2019-05-18T07:13:54.885Z,46.31
2019-05-18T07:15:00.544Z,47.17
2019-05-18T07:16:06.207Z,40.59
2019-05-18T07:17:11.020Z,35.83
2019-05-18T07:18:16.635Z,33.99
2019-05-18T07:19:21.628Z,30.50
2019-05-18T07:20:26.883Z,30.50
2019-05-18T07:21:32.157Z,28.56
2019-05-18T07:22:37.751Z,28.56
2019-05-18T07:23:43.978Z,30.06
2019-05-18T07:24:49.589Z,29.58
2019-05-18T07:25:54.864Z,29.11
2019-05-18T07:27:00.789Z,29.65
2019-05-18T07:28:05.519Z,30.83
2019-05-18T07:29:10.499Z,29.61
2019-05-18T07:30:15.720Z,32.21
2019-05-18T07:31:21.246Z,30.74
2019-05-18T07:32:26.620Z,33.20
2019-05-18T07:33:32.179Z,33.67
2019-05-18T07:34:36.861Z,32.77
2019-05-18T07:35:42.423Z,32.97
2019-05-18T07:36:47.144Z,30.17
2019-05-18T07:37:53.082Z,26.67
2019-05-18T07:38:58.125Z,25.21
2019-05-18T07:40:03.578Z,23.62
2019-05-18T07:41:08.910Z,24.64
2019-05-18T07:42:14.193Z,26.34
2019-05-18T07:43:19.228Z,24.84
2019-05-18T07:44:24.796Z,22.47
2019-05-18T07:45:29.508Z,22.12
2019-05-18T07:46:35.317Z,25.52
2019-05-18T07:47:40.283Z,26.46
2019-05-18T07:48:45.824Z,27.49
2019-05-18T07:49:51.084Z,27.48
2019-05-18T07:50:57.219Z,31.07
2019-05-18T07:52:01.992Z,30.48
2019-05-18T07:53:09.195Z,30.59
2019-05-18T07:54:13.949Z,29.64
2019-05-18T07:55:19.570Z,28.91
2019-05-18T07:56:24.555Z,28.48
2019-05-18T07:57:29.857Z,26.62
2019-05-18T07:58:34.693Z,23.58
2019-05-18T07:59:40.277Z,24.75
2019-05-18T08:00:45.961Z,26.43
2019-05-18T08:01:52.129Z,26.55
2019-05-18T08:02:56.814Z,27.72
2019-05-18T08:04:02.450Z,28.58
2019-05-18T08:05:07.648Z,29.05
2019-05-18T08:06:13.298Z,28.86
2019-05-18T08:07:18.135Z,29.75
2019-05-18T08:08:23.799Z,31.34
2019-05-18T08:09:29.794Z,32.11
2019-05-18T08:10:39.726Z,33.11
2019-05-18T08:11:45.450Z,34.23
2019-05-18T08:12:51.329Z,35.15
2019-05-18T08:13:56.669Z,36.76
2019-05-18T08:15:02.440Z,36.74
2019-05-18T08:16:07.487Z,36.93
2019-05-18T08:17:13.080Z,37.86
2019-05-18T08:18:18.098Z,37.79
2019-05-18T08:19:24.201Z,38.61
2019-05-18T08:20:29.576Z,39.08
2019-05-18T08:21:35.130Z,40.54
2019-05-18T08:22:39.965Z,40.57
2019-05-18T08:23:45.805Z,40.03
2019-05-18T08:24:50.838Z,40.24
2019-05-18T08:25:56.623Z,40.46
2019-05-18T08:27:02.600Z,40.89
2019-05-18T08:28:08.343Z,40.81
2019-05-18T08:29:13.345Z,41.45
2019-05-18T08:30:18.632Z,41.77
2019-05-18T08:31:23.335Z,42.37
2019-05-18T08:32:29.486Z,41.80
2019-05-18T08:33:34.904Z,41.61
2019-05-18T08:34:40.209Z,41.85
2019-05-18T08:35:45.490Z,42.76
2019-05-18T08:36:50.884Z,41.90
2019-05-18T08:37:56.256Z,42.33
2019-05-18T08:39:01.703Z,41.27
2019-05-18T08:40:06.949Z,40.56
2019-05-18T08:41:12.552Z,41.19
2019-05-18T08:42:17.600Z,42.01
2019-05-18T08:43:23.760Z,41.04
2019-05-18T08:44:28.743Z,40.21
2019-05-18T08:45:34.631Z,39.68
2019-05-18T08:46:39.705Z,40.54
2019-05-18T08:47:45.142Z,40.32
2019-05-18T08:48:50.127Z,39.48
2019-05-18T08:49:55.169Z,39.78
2019-05-18T08:50:59.944Z,39.18
2019-05-18T08:52:08.406Z,39.69
2019-05-18T08:53:11.827Z,39.34
2019-05-18T08:54:17.570Z,39.10
2019-05-18T08:55:22.583Z,38.17
2019-05-18T08:56:28.476Z,35.80
2019-05-18T08:57:33.251Z,35.18
2019-05-18T08:58:38.871Z,34.40
2019-05-18T08:59:43.622Z,32.68
2019-05-18T09:00:48.991Z,31.73
2019-05-18T09:01:53.874Z,32.39
2019-05-18T09:02:59.130Z,31.74
2019-05-18T09:04:03.928Z,32.09
2019-05-18T09:05:10.136Z,30.65
2019-05-18T09:06:15.350Z,29.54
2019-05-18T09:07:20.413Z,29.33
2019-05-18T09:08:25.126Z,27.03
2019-05-18T09:09:30.586Z,25.82
2019-05-18T09:10:35.429Z,21.86
2019-05-18T09:11:40.954Z,20.12
2019-05-18T09:12:45.809Z,18.98
2019-05-18T09:13:51.058Z,18.95
2019-05-18T09:14:56.132Z,17.33
2019-05-18T09:16:02.247Z,16.93
2019-05-18T09:17:07.314Z,17.26
2019-05-18T09:18:12.907Z,17.49
2019-05-18T09:19:17.670Z,16.17
2019-05-18T09:20:22.963Z,16.53
2019-05-18T09:21:28.561Z,15.16
2019-05-18T09:22:34.764Z,15.05
2019-05-18T09:23:40.152Z,16.15
2019-05-18T09:24:46.054Z,14.69
2019-05-18T09:25:51.370Z,16.12
2019-05-18T09:26:56.638Z,17.56
2019-05-18T09:28:02.288Z,19.84
2019-05-18T09:29:07.646Z,20.52
2019-05-18T09:30:12.961Z,21.70
2019-05-18T09:31:18.897Z,23.85
2019-05-18T09:32:23.932Z,23.98
2019-05-18T09:33:29.867Z,24.74
2019-05-18T09:34:35.234Z,26.13
2019-05-18T09:35:40.817Z,26.89
2019-05-18T09:36:45.550Z,28.10
2019-05-18T09:37:51.541Z,28.75
2019-05-18T09:38:56.554Z,29.67
2019-05-18T09:40:02.197Z,31.42
2019-05-18T09:41:06.999Z,30.91
2019-05-18T09:42:12.637Z,31.76
2019-05-18T09:43:17.414Z,31.90
2019-05-18T09:44:22.703Z,32.44
2019-05-18T09:45:27.442Z,32.56
2019-05-18T09:46:32.525Z,32.49
2019-05-18T09:47:37.302Z,32.48
2019-05-18T09:48:43.184Z,32.64
2019-05-18T09:49:48.038Z,34.04
2019-05-18T09:50:54.288Z,34.33
2019-05-18T09:51:59.011Z,34.16
2019-05-18T09:53:04.330Z,34.08
2019-05-18T09:54:09.181Z,33.84
2019-05-18T09:55:14.852Z,33.90
2019-05-18T09:56:20.028Z,33.91
2019-05-18T09:57:25.059Z,34.51
2019-05-18T09:58:30.399Z,34.09
2019-05-18T09:59:36.000Z,33.82
2019-05-18T10:00:40.740Z,32.63
2019-05-18T10:01:46.072Z,34.09
2019-05-18T10:02:50.885Z,34.51
2019-05-18T10:03:56.492Z,34.95
2019-05-18T10:05:02.002Z,33.32
2019-05-18T10:06:07.107Z,33.36
2019-05-18T10:07:12.428Z,32.76
2019-05-18T10:08:17.765Z,32.75
2019-05-18T10:09:22.737Z,33.08
2019-05-18T10:10:28.366Z,32.51
2019-05-18T10:11:38.350Z,32.94
2019-05-18T10:12:40.631Z,32.98
2019-05-18T10:13:45.379Z,32.58
2019-05-18T10:14:50.990Z,32.57
2019-05-18T10:15:55.716Z,31.26
2019-05-18T10:17:04.304Z,30.14
2019-05-18T10:18:09.125Z,29.63
2019-05-18T10:19:15.100Z,29.05
2019-05-18T10:20:19.730Z,28.44
2019-05-18T10:21:24.767Z,26.31
2019-05-18T10:22:30.152Z,24.50
2019-05-18T10:23:35.734Z,20.10
2019-05-18T10:24:40.235Z,18.59
2019-05-18T10:25:45.516Z,19.15
2019-05-18T10:26:50.263Z,16.71
2019-05-18T10:27:55.792Z,17.41
2019-05-18T10:29:01.727Z,16.48
2019-05-18T10:30:07.206Z,16.45
2019-05-18T10:31:12.574Z,16.41
2019-05-18T10:32:17.947Z,15.02
2019-05-18T10:33:23.029Z,15.35
2019-05-18T10:34:28.607Z,15.66
2019-05-18T10:35:33.209Z,18.14
2019-05-18T10:36:39.053Z,19.90
2019-05-18T10:37:44.334Z,21.36
2019-05-18T10:38:49.932Z,22.87
2019-05-18T10:39:54.973Z,23.11
2019-05-18T10:41:00.100Z,22.89
2019-05-18T10:42:05.406Z,24.74
2019-05-18T10:43:11.296Z,23.55
2019-05-18T10:44:16.321Z,24.00
2019-05-18T10:45:22.681Z,25.50
2019-05-18T10:46:27.783Z,25.63
2019-05-18T10:47:33.376Z,26.09
2019-05-18T10:48:38.383Z,25.67
2019-05-18T10:49:44.243Z,26.07
2019-05-18T10:50:49.271Z,25.13
2019-05-18T10:51:54.856Z,23.05
2019-05-18T10:52:59.902Z,18.61
2019-05-18T10:54:05.309Z,16.73
2019-05-18T10:55:10.405Z,15.49
2019-05-18T10:56:16.074Z,16.25
2019-05-18T10:57:21.110Z,15.66
2019-05-18T10:58:26.372Z,15.59
2019-05-18T10:59:31.447Z,14.42
2019-05-18T11:00:37.032Z,14.70
2019-05-18T11:01:44.025Z,14.54
2019-05-18T11:02:49.333Z,14.67
2019-05-18T11:03:54.313Z,15.39
2019-05-18T11:04:59.634Z,14.50
2019-05-18T11:06:04.585Z,16.85
2019-05-18T11:07:09.829Z,15.29
2019-05-18T11:08:14.948Z,15.83
2019-05-18T11:09:20.531Z,15.53
2019-05-18T11:10:25.826Z,16.70
2019-05-18T11:11:31.439Z,16.19
2019-05-18T11:12:36.781Z,17.80
2019-05-18T11:13:42.037Z,16.18
2019-05-18T11:14:47.012Z,16.20
2019-05-18T11:15:52.535Z,16.33
2019-05-18T11:16:57.868Z,15.21
2019-05-18T11:18:03.137Z,15.62
2019-05-18T11:19:07.631Z,17.42
2019-05-18T11:20:13.520Z,18.27
2019-05-18T11:21:18.516Z,19.01
2019-05-18T11:22:24.071Z,18.53
2019-05-18T11:23:42.530Z,17.40
2019-05-18T11:24:36.007Z,17.74
2019-05-18T11:25:41.076Z,16.39
2019-05-18T11:26:46.379Z,14.94
2019-05-18T11:27:51.212Z,14.59
2019-05-18T11:28:56.604Z,13.95
2019-05-18T11:30:01.670Z,13.87
2019-05-18T11:31:06.997Z,13.62
2019-05-18T11:32:11.687Z,13.57
2019-05-18T11:33:17.246Z,13.23
2019-05-18T11:34:22.072Z,12.58
2019-05-18T11:35:27.739Z,13.24
2019-05-18T11:36:32.843Z,13.73
2019-05-18T11:37:38.515Z,13.54
2019-05-18T11:38:43.845Z,13.00
2019-05-18T11:39:49.811Z,13.86
2019-05-18T11:40:55.277Z,13.61
2019-05-18T11:42:00.754Z,13.30
2019-05-18T11:43:05.791Z,13.04
2019-05-18T11:44:11.747Z,12.71
2019-05-18T11:45:18.189Z,13.95
2019-05-18T11:46:23.859Z,14.95
2019-05-18T11:47:28.363Z,16.23
2019-05-18T11:48:33.906Z,16.87
2019-05-18T11:49:38.966Z,15.63
2019-05-18T11:50:44.805Z,14.80
2019-05-18T11:51:49.391Z,13.71
2019-05-18T11:52:54.401Z,13.37
2019-05-18T11:53:59.696Z,12.72
2019-05-18T11:55:05.440Z,13.24
2019-05-18T11:56:10.723Z,12.88
2019-05-18T11:57:15.986Z,14.11
2019-05-18T11:58:21.005Z,13.68
2019-05-18T11:59:26.328Z,13.02
2019-05-18T12:00:31.733Z,13.04
2019-05-18T12:01:36.996Z,13.17
2019-05-18T12:02:42.023Z,14.09
2019-05-18T12:03:47.857Z,13.49
2019-05-18T12:04:52.897Z,13.17
2019-05-18T12:05:58.790Z,12.95
2019-05-18T12:07:04.407Z,13.92
2019-05-18T12:08:10.229Z,13.66
2019-05-18T12:09:15.418Z,16.08
2019-05-18T12:10:22.174Z,17.97
2019-05-18T12:11:27.693Z,20.47
2019-05-18T12:12:33.835Z,20.73
2019-05-18T12:13:39.109Z,21.13
2019-05-18T12:14:44.671Z,21.38
2019-05-18T12:15:49.201Z,22.22
2019-05-18T12:16:55.113Z,23.01
2019-05-18T12:17:59.863Z,23.01
2019-05-18T12:19:05.208Z,23.46
2019-05-18T12:20:12.395Z,23.52
2019-05-18T12:21:17.924Z,24.84
2019-05-18T12:22:23.117Z,24.12
2019-05-18T12:23:28.402Z,24.74
2019-05-18T12:24:33.441Z,25.32
2019-05-18T12:25:38.684Z,25.43
2019-05-18T12:26:44.065Z,26.00
2019-05-18T12:27:49.409Z,25.43
2019-05-18T12:28:54.357Z,26.55
2019-05-18T12:29:59.354Z,27.04
2019-05-18T12:31:04.475Z,26.48
2019-05-18T12:32:09.803Z,26.35
2019-05-18T12:33:15.108Z,25.64
2019-05-18T12:34:20.895Z,25.85
2019-05-18T12:35:25.574Z,26.11
2019-05-18T12:36:30.896Z,25.79
2019-05-18T12:37:35.618Z,26.82
2019-05-18T12:38:41.451Z,26.95
2019-05-18T12:39:47.042Z,26.71
2019-05-18T12:40:52.583Z,26.48
2019-05-18T12:41:57.627Z,27.29
2019-05-18T12:43:06.176Z,27.44
2019-05-18T12:44:11.217Z,27.75
2019-05-18T12:45:16.701Z,26.80
2019-05-18T12:46:22.195Z,26.84
2019-05-18T12:47:27.744Z,26.77
2019-05-18T12:48:32.826Z,27.00
2019-05-18T12:49:38.155Z,27.12
2019-05-18T12:50:43.153Z,26.80
2019-05-18T12:51:48.678Z,27.03
2019-05-18T12:52:53.935Z,26.87
2019-05-18T12:53:59.843Z,26.98
2019-05-18T12:55:05.087Z,26.96
2019-05-18T12:56:10.654Z,25.68
2019-05-18T12:57:15.647Z,26.24
2019-05-18T12:58:21.188Z,26.29
2019-05-18T12:59:25.986Z,26.93
2019-05-18T13:00:31.419Z,26.04
2019-05-18T13:01:36.669Z,25.41
2019-05-18T13:02:42.491Z,25.98
2019-05-18T13:03:47.554Z,26.41
2019-05-18T13:04:53.092Z,25.97
2019-05-18T13:05:58.085Z,26.70
2019-05-18T13:07:03.545Z,27.17
2019-05-18T13:08:09.198Z,26.51
2019-05-18T13:09:15.017Z,26.52
2019-05-18T13:10:20.866Z,27.76
2019-05-18T13:11:26.459Z,26.79
2019-05-18T13:12:32.048Z,26.67
2019-05-18T13:13:38.129Z,27.07
2019-05-18T13:14:43.170Z,26.76
2019-05-18T13:15:48.805Z,26.75
2019-05-18T13:16:54.118Z,27.31
2019-05-18T13:17:59.727Z,28.79
2019-05-18T13:19:04.254Z,27.54
2019-05-18T13:20:10.327Z,27.64
2019-05-18T13:21:15.052Z,27.62
2019-05-18T13:22:20.886Z,28.04
2019-05-18T13:23:26.290Z,27.93
2019-05-18T13:24:44.347Z,28.36
2019-05-18T13:25:38.133Z,27.83
2019-05-18T13:26:43.962Z,27.73
2019-05-18T13:27:49.321Z,27.52
2019-05-18T13:28:54.603Z,27.23
2019-05-18T13:29:59.569Z,27.42
2019-05-18T13:31:06.809Z,27.14
2019-05-18T13:32:11.785Z,27.20
2019-05-18T13:33:16.839Z,27.48
2019-05-18T13:34:21.860Z,27.52
2019-05-18T13:35:26.949Z,27.28
2019-05-18T13:36:31.398Z,27.91
2019-05-18T13:37:36.447Z,27.83
2019-05-18T13:38:41.178Z,28.03
2019-05-18T13:39:46.590Z,27.48
2019-05-18T13:40:51.327Z,27.89
2019-05-18T13:41:57.003Z,28.82
2019-05-18T13:43:02.338Z,28.12
2019-05-18T13:44:07.344Z,28.22
2019-05-18T13:45:12.860Z,27.95
2019-05-18T13:46:18.978Z,28.09
2019-05-18T13:47:23.968Z,28.67
2019-05-18T13:48:29.248Z,28.70
2019-05-18T13:49:34.266Z,27.93
2019-05-18T13:50:39.584Z,29.01
2019-05-18T13:51:44.860Z,27.58
2019-05-18T13:52:50.460Z,27.64
2019-05-18T13:53:55.752Z,28.20
2019-05-18T13:55:04.477Z,28.04
2019-05-18T13:56:08.626Z,27.32
2019-05-18T13:57:14.607Z,27.30
2019-05-18T13:58:19.101Z,27.25
2019-05-18T13:59:24.086Z,27.45
2019-05-18T14:00:28.809Z,26.70
2019-05-18T14:01:34.386Z,26.84
2019-05-18T14:02:38.858Z,26.36
2019-05-18T14:03:44.718Z,26.21
2019-05-18T14:04:49.414Z,26.86
2019-05-18T14:05:54.703Z,26.23
2019-05-18T14:07:00.102Z,26.10
2019-05-18T14:08:05.627Z,26.88
2019-05-18T14:09:10.640Z,26.41
2019-05-18T14:10:16.475Z,26.74
2019-05-18T14:11:22.268Z,26.43
2019-05-18T14:12:28.134Z,26.62
2019-05-18T14:13:33.053Z,27.18
2019-05-18T14:14:40.885Z,27.26
2019-05-18T14:15:45.687Z,26.83
2019-05-18T14:16:50.942Z,27.41
2019-05-18T14:17:55.944Z,26.95
2019-05-18T14:19:01.530Z,27.58